WETTERDATEN

HEUTE
Time Temp. Taup. r.Fe. Windrich Windstärke Windböe Druck 1h Prec. 24h Prec.
00:04 6.9 3.7 80 295 0.8 1.4 1017 0.0000 0.0000
00:14 6.9 3.7 80 270 0.3 1.4 1016.9 0.0000 0.0000
00:23 6.8 3.6 80 270 0.8 1.4 1017 0.0000 0.0000
00:34 6.8 3.6 80 270 0.3 1.4 1016.9 0.0000 0.0000
00:44 6.8 3.6 80 270 0.3 1.1 1017 0.0000 0.0000
00:54 6.8 3.6 80 270 0.8 1.4 1017 0.0000 0.0000
01:04 6.8 3.6 80 270 0.8 1.4 1017.2 0.0000 0.0000
01:14 6.8 3.6 80 270 0.3 1.9 1017 0.0000 0.0000
01:24 6.8 3.6 80 270 0.3 1.9 1016.9 0.0000 0.0000
01:34 6.8 3.6 80 270 0.8 1.9 1016.8 0.0000 0.0000
01:45 6.8 3.6 80 284 0.8 2.2 1017 0.0000 0.0000
01:55 6.7 3.3 79 270 0.3 1.1 1016.3 0.0000 0.0000
02:04 6.7 3.3 79 270 0.8 1.4 1016.6 0.0000 0.0000
02:14 6.6 3 78 270 0.8 1.4 1016.7 0.0000 0.0000
02:25 6.6 3 78 270 0.8 1.9 1016.9 0.0000 0.0000
02:35 6.5 2.8 77 270 0.8 3.1 1016.8 0.0000 0.0000
02:44 6.4 2.7 77 270 0.8 1.4 1016.9 0.0000 0.0000
02:55 6.4 2.7 77 270 0.3 1.4 1016.6 0.0000 0.0000
03:05 6.3 2.4 76 258 0.8 1.4 1016.5 0.0000 0.0000
03:15 6.2 2.3 76 282 0.8 1.1 1016.5 0.0000 0.0000
03:25 6.2 2.3 76 270 0.8 1.4 1016.5 0.0000 0.0000
03:35 6.2 2.3 76 283 0.8 1.4 1016.4 0.0000 0.0000
03:45 6.1 2.2 76 270 0.3 1.4 1016.2 0.0000 0.0000
03:55 6.1 2.2 76 292 0.8 1.9 1016.2 0.0000 0.0000
04:06 6 2.1 76 270 0.8 1.9 1016.3 0.0000 0.0000
04:17 6 2.1 76 307 0.8 1.9 1016.2 0.0000 0.0000
04:27 6 2.1 76 270 0.8 1.9 1016 0.0000 0.0000
04:36 6.1 2.2 76 281 0.8 1.9 1016.1 0.0000 0.0000
04:47 6.1 2.2 76 285 0.8 1.9 1015.9 0.0000 0.0000
04:57 6.2 2.3 76 286 0.8 1.9 1015.9 0.0000 0.0000
05:07 6.2 2.3 76 270 0.8 1.9 1015.9 0.0000 0.0000
05:16 6.3 2.4 76 292 0.8 2.2 1015.8 0.0000 0.0000
05:27 6.3 2.4 76 285 0.8 2.2 1015.5 0.0000 0.0000
05:37 6.2 2.3 76 292 0.8 2.5 1015.6 0.0000 0.0000
05:47 6.2 2.3 76 300 0.8 3.1 1015.6 0.0000 0.0000
05:57 6.1 2 75 270 0.8 3.3 1015.7 0.0000 0.0000
06:07 6.1 2 75 270 0.8 1.9 1015.8 0.0000 0.0000
06:17 6 1.9 75 249 0.8 2.2 1015.7 0.0000 0.0000
06:27 6 2.1 76 270 0.8 2.5 1015.7 0.0000 0.0000
06:38 6 2.1 76 293 0.8 2.2 1015.7 0.0000 0.0000
06:48 6.1 2.2 76 288 0.8 1.9 1015.7 0.0000 0.0000
06:56 6.3 2.4 76 270 0.8 1.9 1015.8 0.0000 0.0000
07:06 6.5 2.4 75 297 1.1 3.1 1015.7 0.0000 0.0000
07:16 6.6 2.5 75 292 0.8 2.2 1015.8 0.0000 0.0000
07:26 6.6 2.3 74 292 0.8 3.1 1015.9 0.0000 0.0000
07:37 6.5 2.2 74 284 0.8 1.4 1016.1 0.0000 0.0000
07:46 6.5 2.2 74 270 0.8 3.3 1016 0.0000 0.0000
07:56 6.5 2.2 74 282 0.8 2.5 1016 0.0000 0.0000
08:06 6.5 2.4 75 270 0.8 1.9 1016.1 0.0000 0.0000
08:17 6.5 2.4 75 292 0.8 2.5 1016.1 0.0000 0.0000
08:27 6.6 2.5 75 270 1.1 2.5 1016.3 0.0000 0.0000
08:36 6.6 2.5 75 270 0.8 2.5 1016.4 0.0000 0.0000
08:47 6.6 2.3 74 289 0.8 2.2 1016.4 0.0000 0.0000
08:57 6.6 2.3 74 293 0.8 3.1 1016.4 0.0000 0.0000
09:07 6.6 2.5 75 282 0.8 2.2 1016.4 0.0000 0.0000
09:17 6.7 2.6 75 291 0.8 1.9 1016.4 0.0000 0.0000
09:27 6.7 2.4 74 270 0.8 2.5 1016.5 0.0000 0.0000
09:37 6.7 2.4 74 270 0.8 2.2 1016.8 0.0000 0.0000
09:47 6.8 2.5 74 294 0.8 2.2 1016.8 0.0000 0.0000
09:58 6.9 2.6 74 292 1.1 1.9 1016.8 0.0000 0.0000
10:07 6.9 2.6 74 251 1.1 2.2 1016.6 0.0000 0.0000
10:17 7 2.7 74 288 0.8 1.9 1016.6 0.0000 0.0000
10:27 7 2.7 74 280 0.8 3.6 1016.7 0.0000 0.0000
10:38 7 2.7 74 270 1.1 3.1 1016.6 0.0000 0.0000
10:47 7.1 2.8 74 270 0.8 2.5 1016.5 0.0000 0.0000
10:57 7.1 2.8 74 256 0.8 2.2 1016.5 0.0000 0.0000
11:08 7.3 3 74 270 0.8 2.5 1016.4 0.0000 0.0000
11:18 8.5 4.3 75 270 0.8 2.2 1016.2 0.0000 0.0000
11:28 9.5 4.7 72 297 0.8 1.9 1016.3 0.0000 0.0000
11:38 9.3 4.1 70 270 0.8 3.1 1016.3 0.0000 0.0000
11:48 9.1 3.9 70 270 0.8 2.2 1016.2 0.0000 0.0000
11:58 8.8 3.6 70 278 1.1 3.3 1016.4 0.0000 0.0000
12:13 8.5 3.3 70 286 1.1 3.1 1016.2 0.0000 0.0000
12:23 8.5 3.6 71 281 0.8 2.2 1016.2 0.0000 0.0000
12:33 8.4 3.5 71 253 1.1 3.3 1016.2 0.0000 0.0000
12:43 8.4 3.3 70 246 1.1 3.3 1016 0.0000 0.0000
12:54 8.3 3.2 70 288 1.1 3.6 1015.8 0.0000 0.0000
13:04 8.3 3.2 70 287 1.1 3.1 1015.8 0.0000 0.0000
13:13 8.2 3.1 70 284 0.8 2.5 1015.7 0.0000 0.0000
13:23 8.2 3.3 71 270 0.8 3.1 1015.6 0.0000 0.0000
13:34 8.2 3.3 71 270 0.8 2.5 1015.7 0.0000 0.0000
13:44 8.2 3.3 71 299 0.8 3.1 1015.4 0.0000 0.0000
13:53 8.2 3.3 71 279 1.1 2.5 1015.3 0.0000 0.0000
14:04 8.2 3.3 71 270 1.1 2.5 1015.4 0.0000 0.0000
14:14 8.2 3.3 71 285 0.8 2.5 1015.2 0.0000 0.0000
14:24 8.2 3.3 71 282 0.8 3.1 1015.2 0.0000 0.0000
14:34 8.2 3.3 71 281 0.8 3.1 1015.2 0.0000 0.0000
14:44 8.3 3.4 71 270 0.8 3.1 1015 0.0000 0.0000
14:54 8.3 3.4 71 260 0.8 2.2 1015 0.0000 0.0000
15:04 8.4 3.5 71 293 0.8 1.9 1015.1 0.0000 0.0000
15:15 8.4 3.5 71 270 0.8 2.5 1015.1 0.0000 0.0000
15:24 8.4 3.3 70 270 0.8 3.1 1015.2 0.0000 0.0000
15:34 8.5 3.3 70 283 1.1 2.5 1015.1 0.0000 0.0000

TAGESSTATISTIK

2023-02-01
TEMPERATUR
MITTEL
7.1
MAXIMUM
9.5
11:28
MINIMUM
6.0
04:06
LUFTDRUCK
MITTEL
1016.2
MAXIMUM
1017.2
01:04
MINIMUM
1015.0
14:44
TAUPUNKT
MITTEL
2.9
MAXIMUM
4.7
11:28
MINIMUM
1.9
06:17
FEUCHTIGKEIT
MITTEL
75
MAXIMUM
80
00:04
MINIMUM
70
11:38
WINDSTÄRKE
MITTEL
0.8
MAXIMUM
1.1
07:06
WINDBÖE
MITTEL
2.3
MAXIMUM
3.6
10:27
WINDRICHTUNG
VORHERRSCHENDE
W
88.2%
N
0.0
NO
0.0
O
0.0
SO
0.0
S
0.0
SW
1.1
W
88.2
NW
10.8
NIEDERSCHLAG
REGEN STUNDE
0.0
REGEN TAG
0.0
TEMPERATUR (°C)
MINIMUM
6.0
MAXIMUM
9.5
MITTEL
7.1
LUFTDRUCK (hpa)
MINIMUM
1015.0
MAXIMUM
1017.2
MITTEL
1016.2
MESSGERÄT